Terminal Aerodrome Forecast
Issued by NWS

Home | Current Version | Previous Version | Text Only | Print | Product List | Glossary On
Versions: 1 2 3 4 5 6 7 8 9 10 11 12 13 14 15 16 17 18 19 20 21 22 23
159
FTUS41 KBUF 251120
TAFJHW
TAF
KJHW 251120Z 2512/2612 22006KT P6SM SKC
     FM251500 25011G20KT P6SM SCT250
     FM251800 26011KT P6SM SCT250
     FM260000 00000KT P6SM FEW250
     FM260300 19004KT P6SM SCT250
     FM260800 18005KT P6SM BKN110
      AMD LTD TO CLD VIS AND WIND=

USA.gov is the U.S. government's official web portal to all federal, state and local government web resources and services.